DMIDF EDLW-EDLW

Flight info

Callsign DMIDF
Flight time 0h 13m
Altitude
Route
Aircraft VL3

Departure

Time 2026-05-06 17:07
Airport Dortmund Airport (EDLW)

Arrival

Time 2026-05-06 17:20
Airport Dortmund Airport (EDLW)
Time Latitude Longitude Altitude Speed Heading
2026-05-06 17:03 51.51204 7.60195 447 ft 16 kts 54°
2026-05-06 17:03 51.51259 7.60343 442 ft 16 kts 61°
2026-05-06 17:03 51.51315 7.60501 429 ft 17 kts 62°
2026-05-06 17:04 51.51370 7.60664 437 ft 16 kts 62°
2026-05-06 17:04 51.51433 7.60840 426 ft 20 kts 61°
2026-05-06 17:04 51.51499 7.61025 429 ft 17 kts 58°
2026-05-06 17:04 51.51572 7.61013 423 ft 12 kts 267°
2026-05-06 17:05 51.51557 7.60894 421 ft 12 kts 254°
2026-05-06 17:05 51.51533 7.60751 417 ft 9 kts 258°
2026-05-06 17:05 51.51524 7.60688 416 ft 3 kts 272°
2026-05-06 17:05 51.51548 7.60625 415 ft 14 kts 324°
2026-05-06 17:06 51.51609 7.60588 415 ft 6 kts 34°
2026-05-06 17:06 51.51621 7.60627 416 ft 0 kts 54°
2026-05-06 17:06 51.51626 7.60639 416 ft 15 kts 57°
2026-05-06 17:06 51.51827 7.61215 447 ft 90 kts 61°
2026-05-06 17:07 51.52162 7.62166 745 ft 104 kts 62°
2026-05-06 17:07 51.52477 7.63251 1187 ft 112 kts 100°
2026-05-06 17:07 51.51931 7.64052 1477 ft 103 kts 180°
2026-05-06 17:07 51.51393 7.63387 1517 ft 116 kts 234°
2026-05-06 17:08 51.50929 7.62424 1417 ft 128 kts 231°
2026-05-06 17:08 51.50372 7.61223 1423 ft 139 kts 233°
2026-05-06 17:08 51.49904 7.59858 1535 ft 137 kts 247°
2026-05-06 17:08 51.50259 7.58825 1680 ft 108 kts 324°
2026-05-06 17:09 51.50914 7.58530 1335 ft 88 kts 47°
2026-05-06 17:09 51.51120 7.59109 981 ft 92 kts 71°
2026-05-06 17:09 51.51403 7.59990 541 ft 83 kts 62°
2026-05-06 17:09 51.51644 7.60689 417 ft 67 kts 62°
2026-05-06 17:10 51.51934 7.61510 640 ft 95 kts 62°
2026-05-06 17:10 51.52263 7.62512 997 ft 102 kts 75°
2026-05-06 17:10 51.52052 7.63496 1303 ft 107 kts 149°
2026-05-06 17:10 51.51332 7.63662 1592 ft 115 kts 222°
2026-05-06 17:11 51.50770 7.62484 1537 ft 146 kts 238°
2026-05-06 17:11 51.50235 7.61069 1580 ft 152 kts 234°
2026-05-06 17:11 51.49615 7.59776 1628 ft 133 kts 231°
2026-05-06 17:11 51.49057 7.58838 1620 ft 110 kts 225°
2026-05-06 17:12 51.48556 7.58006 1514 ft 98 kts 227°
2026-05-06 17:12 51.48087 7.57134 1479 ft 96 kts 230°
2026-05-06 17:12 51.47904 7.56300 1594 ft 77 kts 295°
2026-05-06 17:12 51.48546 7.55716 1428 ft 118 kts 335°
2026-05-06 17:13 51.49288 7.55336 1410 ft 107 kts 339°
2026-05-06 17:13 51.49884 7.55543 1298 ft 93 kts 64°
2026-05-06 17:13 51.50234 7.56590 1033 ft 106 kts 63°
2026-05-06 17:13 51.50572 7.57565 874 ft 99 kts 71°
2026-05-06 17:14 51.50905 7.58543 739 ft 99 kts 64°
2026-05-06 17:14 51.51215 7.59449 604 ft 87 kts 61°
2026-05-06 17:14 51.51492 7.60267 440 ft 78 kts 61°
2026-05-06 17:14 51.51731 7.60946 417 ft 61 kts 57°
2026-05-06 17:15 51.52007 7.61763 682 ft 95 kts 62°
2026-05-06 17:15 51.51960 7.62625 1082 ft 93 kts 151°
2026-05-06 17:15 51.51324 7.63092 1432 ft 102 kts 210°
2026-05-06 17:15 51.50761 7.62093 1445 ft 135 kts 229°
2026-05-06 17:16 51.50121 7.60892 1493 ft 147 kts 228°
2026-05-06 17:16 51.49677 7.59656 1806 ft 108 kts 287°
2026-05-06 17:16 51.50265 7.59076 1506 ft 92 kts 334°
2026-05-06 17:16 51.50844 7.58886 1219 ft 82 kts
2026-05-06 17:17 51.51265 7.59601 692 ft 92 kts 61°
2026-05-06 17:17 51.51548 7.60420 418 ft 72 kts 61°
2026-05-06 17:17 51.51772 7.61048 417 ft 87 kts 60°
2026-05-06 17:17 51.52093 7.61982 818 ft 102 kts 65°
2026-05-06 17:18 51.52688 7.62422 1261 ft 108 kts 333°
2026-05-06 17:18 51.53255 7.61584 1402 ft 128 kts 268°
2026-05-06 17:18 51.53005 7.60104 1416 ft 143 kts 247°
2026-05-06 17:18 51.52624 7.58578 1476 ft 150 kts 245°
2026-05-06 17:19 51.52113 7.57141 1526 ft 140 kts 215°
2026-05-06 17:19 51.51334 7.57420 1410 ft 117 kts 144°
2026-05-06 17:19 51.50874 7.58307 1198 ft 97 kts 113°
2026-05-06 17:19 51.51175 7.59328 1144 ft 116 kts 60°
2026-05-06 17:20 51.51543 7.60364 846 ft 97 kts 64°
2026-05-06 17:20 51.51845 7.61250 511 ft 83 kts 62°
2026-05-06 17:20 51.52070 7.61905 407 ft 50 kts 63°
2026-05-06 17:20 51.52193 7.62301 405 ft 15 kts 156°
2026-05-06 17:21 51.52122 7.62370 405 ft 1 kts 152°
2026-05-06 17:21 51.52121 7.62371 405 ft 0 kts 153°
2026-05-06 17:22 51.52118 7.62374 404 ft 7 kts 152°
2026-05-06 17:22 51.52050 7.62362 404 ft 10 kts 258°
2026-05-06 17:22 51.52016 7.62284 406 ft 7 kts 246°
2026-05-06 17:22 51.51987 7.62203 407 ft 8 kts 244°
2026-05-06 17:23 51.51962 7.62117 408 ft 9 kts 230°
2026-05-06 17:23 51.51924 7.62032 408 ft 10 kts 240°
2026-05-06 17:23 51.51894 7.61937 410 ft 9 kts 241°
2026-05-06 17:23 51.51865 7.61851 411 ft 9 kts 243°
2026-05-06 17:24 51.51833 7.61764 411 ft 9 kts 238°
2026-05-06 17:24 51.51803 7.61681 412 ft 8 kts 242°
2026-05-06 17:24 51.51761 7.61567 416 ft 12 kts 240°
2026-05-06 17:24 51.51708 7.61413 416 ft 14 kts 239°
2026-05-06 17:25 51.51669 7.61305 422 ft 10 kts 239°
2026-05-06 17:25 51.51637 7.61210 423 ft 9 kts 247°
2026-05-06 17:25 51.51605 7.61120 419 ft 12 kts 242°
2026-05-06 17:25 51.51577 7.60991 422 ft 13 kts 258°
2026-05-06 17:26 51.51554 7.60873 416 ft 11 kts 253°
2026-05-06 17:26 51.51534 7.60752 417 ft 8 kts 252°
2026-05-06 17:26 51.51527 7.60681 416 ft 2 kts 287°
2026-05-06 17:26 51.51527 7.60678 416 ft 0 kts 287°
2026-05-06 17:27 51.51539 7.60644 415 ft 11 kts 307°
2026-05-06 17:27 51.51601 7.60588 415 ft 5 kts 21°
2026-05-06 17:28 51.51615 7.60607 415 ft 1 kts 53°
2026-05-06 17:28 51.51618 7.60613 415 ft 0 kts 57°
2026-05-06 17:28 51.51618 7.60614 415 ft 0 kts 57°
2026-05-06 17:29 51.51644 7.60683 417 ft 37 kts 61°
2026-05-06 17:29 51.51870 7.61357 571 ft 83 kts 59°
2026-05-06 17:29 51.52063 7.62162 565 ft 67 kts 138°
2026-05-06 17:30 51.51632 7.62577 837 ft 81 kts 159°
2026-05-06 17:30 51.51173 7.62482 1205 ft 91 kts 238°
2026-05-06 17:30 51.50765 7.61295 991 ft 140 kts 237°
2026-05-06 17:30 51.50433 7.59989 1323 ft 105 kts 283°
2026-05-06 17:31 51.51001 7.59387 946 ft 98 kts 334°
2026-05-06 17:31 51.51365 7.59895 626 ft 76 kts 71°
2026-05-06 17:31 51.51615 7.60630 666 ft 67 kts 65°
2026-05-06 17:31 51.51902 7.61396 877 ft 87 kts 62°
2026-05-06 17:32 51.52254 7.62333 1240 ft 110 kts 66°
2026-05-06 17:32 51.51934 7.63289 1519 ft 119 kts 156°
2026-05-06 17:32 51.51200 7.62839 1569 ft 138 kts 230°
2026-05-06 17:32 51.50597 7.61496 1513 ft 152 kts 235°
2026-05-06 17:33 51.50139 7.60122 1614 ft 102 kts 274°
2026-05-06 17:33 51.50607 7.59530 1026 ft 83 kts 332°
2026-05-06 17:33 51.51146 7.59400 743 ft 76 kts 31°
2026-05-06 17:33 51.51437 7.60107 428 ft 71 kts 63°
2026-05-06 17:34 51.51595 7.60546 415 ft 26 kts 81°
2026-05-06 17:34 51.51527 7.60684 416 ft 12 kts 93°
2026-05-06 17:34 51.51529 7.60725 416 ft 6 kts 86°
2026-05-06 17:34 51.51547 7.60829 418 ft 17 kts 76°
2026-05-06 17:35 51.51556 7.61041 424 ft 19 kts 155°
2026-05-06 17:35 51.51465 7.60931 430 ft 17 kts 241°
2026-05-06 17:35 51.51403 7.60752 431 ft 16 kts 238°
2026-05-06 17:36 51.51295 7.60446 432 ft 14 kts 240°
2026-05-06 17:36 51.51246 7.60306 443 ft 14 kts 243°
2026-05-06 17:36 51.51204 7.60181 447 ft 14 kts 219°
2026-05-06 17:36 51.51181 7.60304 455 ft 25 kts 73°
2026-05-06 17:37 51.51197 7.60399 457 ft 0 kts 66°